Time;durP1;ratioP1;P1;durP2;ratioP2;P2;SDS_P1;SDS_P2;PMS_P1;PMS_P2;Temp;Humidity;BMP_temperature;BMP_pressure;BME280_temperature;BME280_humidity;BME280_pressure;Samples;Min_cycle;Max_cycle;Signal;HPM_P1;HPM_P2
2021/09/01 00:02:20;;;;;;;5.77;3.83;;;15.40;99.90;;;;;;5031396;28;20177;-78
2021/09/01 00:04:45;;;;;;;8.33;3.90;;;15.30;99.90;;;;;;5032218;28;20228;-77
2021/09/01 00:07:11;;;;;;;5.97;4.60;;;15.30;99.90;;;;;;5031194;28;20181;-78
2021/09/01 00:09:37;;;;;;;7.30;4.13;;;15.20;99.90;;;;;;5032288;28;20227;-79
2021/09/01 00:12:04;;;;;;;7.43;4.53;;;15.30;99.90;;;;;;5014940;28;20363;-78
2021/09/01 00:14:30;;;;;;;6.10;4.53;;;15.30;99.90;;;;;;5031996;28;20837;-78
2021/09/01 00:16:55;;;;;;;9.10;4.70;;;15.30;99.90;;;;;;5032302;28;20404;-78
2021/09/01 00:19:21;;;;;;;6.70;5.03;;;15.20;99.90;;;;;;5031328;28;20180;-77
2021/09/01 00:21:46;;;;;;;6.17;4.40;;;15.20;99.90;;;;;;5032646;28;20177;-78
2021/09/01 00:24:12;;;;;;;6.27;5.07;;;15.20;99.90;;;;;;5032714;28;20197;-77
2021/09/01 00:26:38;;;;;;;7.00;5.00;;;15.30;99.90;;;;;;5032669;28;20177;-77
2021/09/01 00:29:04;;;;;;;6.20;4.57;;;15.30;99.90;;;;;;5032463;28;20173;-77
2021/09/01 00:31:30;;;;;;;8.33;5.07;;;15.30;99.90;;;;;;5032635;28;20455;-79
2021/09/01 00:33:56;;;;;;;5.90;4.20;;;15.30;99.90;;;;;;5033086;28;20462;-78
2021/09/01 00:36:21;;;;;;;13.23;4.83;;;15.30;99.90;;;;;;5034493;28;20618;-77
2021/09/01 00:38:47;;;;;;;5.80;4.63;;;15.20;99.90;;;;;;5034849;28;20708;-78
2021/09/01 00:41:27;;;;;;;7.50;4.93;;;15.30;99.90;;;;;;5033815;28;20285;-78
2021/09/01 00:43:55;;;;;;;7.37;4.80;;;15.30;99.90;;;;;;5032111;28;20430;-78
2021/09/01 00:46:21;;;;;;;6.20;4.70;;;15.30;99.90;;;;;;5033029;28;20419;-78
2021/09/01 00:48:47;;;;;;;7.50;4.90;;;15.30;99.90;;;;;;5033094;28;20414;-77
2021/09/01 00:51:17;;;;;;;7.40;4.40;;;15.30;99.90;;;;;;5033567;28;20447;-77
2021/09/01 00:53:47;;;;;;;6.67;4.90;;;15.30;99.90;;;;;;5039660;28;20408;-76
2021/09/01 00:56:31;;;;;;;6.90;4.77;;;15.30;99.90;;;;;;5037451;28;20447;-78
2021/09/01 00:58:57;;;;;;;5.50;4.37;;;15.30;99.90;;;;;;5038298;28;20411;-77
2021/09/01 01:01:23;;;;;;;7.27;4.50;;;15.30;99.90;;;;;;5038888;28;20419;-77
2021/09/01 01:03:54;;;;;;;8.47;5.00;;;15.30;99.90;;;;;;5038014;28;20412;-78
2021/09/01 01:06:22;;;;;;;5.83;4.50;;;15.20;99.90;;;;;;5037870;28;20680;-79
2021/09/01 01:08:48;;;;;;;6.60;4.90;;;15.20;99.90;;;;;;5039200;28;20431;-76
2021/09/01 01:11:14;;;;;;;6.70;4.70;;;15.20;99.90;;;;;;5037232;28;20561;-77
2021/09/01 01:13:41;;;;;;;5.77;5.00;;;15.20;99.90;;;;;;5036225;28;20419;-77
2021/09/01 01:16:07;;;;;;;6.10;4.97;;;15.20;99.90;;;;;;5034652;28;20564;-77
2021/09/01 01:18:32;;;;;;;7.70;4.90;;;15.10;99.90;;;;;;5036054;28;20426;-77
2021/09/01 01:20:58;;;;;;;9.33;5.83;;;15.10;99.90;;;;;;5035839;28;20180;-80
2021/09/01 01:23:24;;;;;;;9.17;5.90;;;15.20;99.90;;;;;;5035649;28;20201;-78
2021/09/01 01:25:53;;;;;;;6.37;4.93;;;15.10;99.90;;;;;;5035810;28;20278;-78
2021/09/01 01:28:19;;;;;;;8.57;4.77;;;15.20;99.90;;;;;;5035690;28;20422;-79
2021/09/01 01:30:45;;;;;;;8.47;4.93;;;15.20;99.90;;;;;;5035397;28;20479;-80
2021/09/01 01:33:12;;;;;;;6.50;4.50;;;15.20;99.90;;;;;;5035539;28;20416;-79
2021/09/01 01:35:41;;;;;;;8.40;5.03;;;15.20;99.90;;;;;;5035601;28;20192;-79
2021/09/01 01:38:17;;;;;;;9.00;5.57;;;15.20;99.90;;;;;;5035444;28;20415;-78
2021/09/01 01:40:44;;;;;;;7.07;5.37;;;15.30;99.90;;;;;;5035297;28;20853;-79
2021/09/01 01:43:10;;;;;;;6.93;5.10;;;15.30;99.90;;;;;;5034869;28;20419;-78
2021/09/01 01:45:41;;;;;;;7.53;6.17;;;15.30;99.90;;;;;;5034948;28;20431;-78
2021/09/01 01:48:09;;;;;;;10.93;6.57;;;15.30;99.90;;;;;;5035096;28;20411;-80
2021/09/01 01:50:37;;;;;;;8.47;5.53;;;15.30;99.90;;;;;;5036716;28;20942;-79
2021/09/01 01:53:03;;;;;;;6.40;5.30;;;15.30;99.90;;;;;;5036188;28;20419;-77
2021/09/01 01:55:29;;;;;;;9.30;5.20;;;15.30;99.90;;;;;;5053077;28;20893;-78
2021/09/01 02:00:39;;;;;;;10.70;6.53;;;15.10;99.90;;;;;;5035098;28;20439;-78
2021/09/01 02:03:06;;;;;;;7.97;6.17;;;15.10;99.90;;;;;;5034095;28;20419;-78
2021/09/01 02:05:32;;;;;;;7.20;5.50;;;15.10;99.90;;;;;;5034462;28;20251;-78
2021/09/01 02:07:57;;;;;;;9.10;5.50;;;15.20;99.90;;;;;;5034772;28;20419;-77
2021/09/01 02:10:23;;;;;;;11.23;5.83;;;15.20;99.90;;;;;;5034742;28;20372;-78
2021/09/01 02:12:49;;;;;;;8.67;6.03;;;15.20;99.90;;;;;;5033380;28;20330;-76
2021/09/01 02:15:14;;;;;;;9.43;5.93;;;15.30;99.90;;;;;;5033121;28;20428;-77
2021/09/01 02:17:40;;;;;;;9.20;6.30;;;15.20;99.90;;;;;;5034685;28;20165;-77
2021/09/01 02:20:08;;;;;;;9.40;5.57;;;15.20;99.90;;;;;;5033436;28;20176;-78
2021/09/01 02:22:33;;;;;;;7.57;6.13;;;15.20;99.90;;;;;;5034400;28;20491;-78
2021/09/01 02:24:59;;;;;;;11.20;5.37;;;15.20;99.90;;;;;;5034177;28;20878;-77
2021/09/01 02:27:25;;;;;;;9.53;6.17;;;15.30;99.90;;;;;;5034566;28;20175;-77
2021/09/01 02:29:50;;;;;;;10.63;7.00;;;15.30;99.90;;;;;;5034140;28;20412;-78
2021/09/01 02:32:16;;;;;;;7.90;5.37;;;15.30;99.90;;;;;;5034095;28;20201;-78
2021/09/01 02:34:42;;;;;;;10.17;5.90;;;15.30;99.90;;;;;;5033949;28;20193;-77
2021/09/01 02:37:07;;;;;;;10.03;6.00;;;15.40;99.90;;;;;;5034850;28;20253;-77
2021/09/01 02:39:33;;;;;;;12.97;6.23;;;15.30;99.90;;;;;;5034255;28;20228;-77
2021/09/01 02:41:58;;;;;;;9.67;5.97;;;15.30;99.90;;;;;;5033941;28;20186;-78
2021/09/01 02:44:24;;;;;;;7.53;5.73;;;15.30;99.90;;;;;;5034123;28;20238;-76
2021/09/01 02:46:50;;;;;;;10.27;6.40;;;15.30;99.90;;;;;;5034966;28;20177;-78
2021/09/01 02:49:15;;;;;;;6.87;5.70;;;15.30;99.90;;;;;;5034665;28;20188;-78
2021/09/01 02:51:41;;;;;;;8.70;6.20;;;15.30;99.90;;;;;;5034084;28;20213;-78
2021/09/01 02:54:06;;;;;;;7.83;6.23;;;15.30;99.90;;;;;;5033726;28;20218;-78
2021/09/01 02:56:32;;;;;;;7.50;5.53;;;15.30;99.90;;;;;;5033858;28;20248;-77
2021/09/01 02:58:57;;;;;;;10.33;6.67;;;15.30;99.90;;;;;;5032396;28;20181;-78
2021/09/01 03:01:23;;;;;;;7.60;5.40;;;15.30;99.90;;;;;;5032366;28;20559;-78
2021/09/01 03:03:49;;;;;;;9.73;6.53;;;15.30;99.90;;;;;;5033501;28;20174;-80
2021/09/01 03:06:14;;;;;;;9.07;5.60;;;15.30;99.90;;;;;;5033938;28;20204;-79
2021/09/01 03:08:40;;;;;;;10.13;5.70;;;15.30;99.90;;;;;;5033909;28;20597;-77
2021/09/01 03:11:05;;;;;;;7.90;6.03;;;15.20;99.90;;;;;;5033675;28;20197;-78
2021/09/01 03:13:32;;;;;;;8.40;5.67;;;15.20;99.90;;;;;;5033213;28;20174;-79
2021/09/01 03:15:58;;;;;;;12.90;6.20;;;15.10;99.90;;;;;;5030902;28;20204;-77
2021/09/01 03:18:23;;;;;;;10.50;6.40;;;15.00;99.90;;;;;;5033537;28;20421;-78
2021/09/01 03:20:49;;;;;;;10.93;6.40;;;15.00;99.90;;;;;;5033176;28;20178;-76
2021/09/01 03:23:14;;;;;;;8.53;5.83;;;14.90;99.90;;;;;;5032689;28;20186;-78
2021/09/01 03:25:40;;;;;;;12.00;6.97;;;14.90;99.90;;;;;;5032923;28;20265;-78
2021/09/01 03:28:06;;;;;;;10.67;6.40;;;14.90;99.90;;;;;;5032840;28;20180;-78
2021/09/01 03:30:31;;;;;;;7.80;5.60;;;15.00;99.90;;;;;;5031741;28;20185;-77
2021/09/01 03:32:57;;;;;;;7.13;5.03;;;15.00;99.90;;;;;;5032830;28;20174;-78
2021/09/01 03:35:23;;;;;;;8.17;6.23;;;15.00;99.90;;;;;;5033116;28;20193;-78
2021/09/01 03:37:49;;;;;;;10.57;5.83;;;15.00;99.90;;;;;;5032946;28;20400;-78
2021/09/01 03:40:15;;;;;;;9.80;7.20;;;15.00;99.90;;;;;;5033114;28;20243;-78
2021/09/01 03:42:41;;;;;;;9.77;6.57;;;15.10;99.90;;;;;;5032736;28;20718;-77
2021/09/01 03:45:07;;;;;;;8.40;5.37;;;15.00;99.90;;;;;;5032922;28;20564;-77
2021/09/01 03:47:33;;;;;;;10.63;6.60;;;14.90;99.90;;;;;;5033190;28;20926;-79
2021/09/01 03:50:03;;;;;;;8.60;6.00;;;14.90;99.90;;;;;;5033272;28;20425;-79
2021/09/01 03:52:28;;;;;;;11.87;6.63;;;14.90;99.90;;;;;;5032885;28;20204;-80
2021/09/01 03:54:54;;;;;;;8.53;5.53;;;14.90;99.90;;;;;;5015036;28;20443;-77
2021/09/01 03:57:19;;;;;;;9.07;5.87;;;14.80;99.90;;;;;;5033312;28;20225;-79
2021/09/01 03:59:45;;;;;;;8.87;6.20;;;14.80;99.90;;;;;;5032083;28;20175;-79
2021/09/01 04:02:13;;;;;;;11.33;6.33;;;14.90;99.90;;;;;;5032006;28;20183;-80
2021/09/01 04:04:39;;;;;;;12.93;6.40;;;15.00;99.90;;;;;;5032563;28;20261;-78
2021/09/01 04:07:05;;;;;;;7.30;5.37;;;15.00;99.90;;;;;;5033013;28;20785;-78
2021/09/01 04:09:31;;;;;;;11.97;6.30;;;15.00;99.90;;;;;;5031836;28;20510;-80
2021/09/01 04:11:57;;;;;;;12.73;6.33;;;15.00;99.90;;;;;;5033142;28;20551;-80
2021/09/01 04:14:23;;;;;;;8.10;5.73;;;15.00;99.90;;;;;;5031520;28;20188;-78
2021/09/01 04:16:48;;;;;;;10.57;6.10;;;15.00;99.90;;;;;;5031313;28;20172;-77
2021/09/01 04:19:14;;;;;;;9.00;5.90;;;15.00;99.90;;;;;;5032728;28;20511;-77
2021/09/01 04:21:40;;;;;;;11.17;6.00;;;15.00;99.90;;;;;;5032462;28;20184;-78
2021/09/01 04:24:05;;;;;;;10.50;6.17;;;15.00;99.90;;;;;;5032310;28;20419;-79
2021/09/01 04:26:31;;;;;;;8.43;5.37;;;15.00;99.90;;;;;;5032875;28;20667;-78
2021/09/01 04:28:56;;;;;;;9.33;6.37;;;15.00;99.90;;;;;;5032714;28;20183;-78
2021/09/01 04:31:22;;;;;;;7.17;6.00;;;15.00;99.90;;;;;;5032168;28;20751;-78
2021/09/01 04:33:48;;;;;;;7.80;4.90;;;15.00;99.90;;;;;;5032169;28;20171;-79
2021/09/01 04:36:14;;;;;;;6.47;5.23;;;15.00;99.90;;;;;;5032421;28;20171;-77
2021/09/01 04:38:39;;;;;;;11.80;5.40;;;15.10;99.90;;;;;;5032018;28;20776;-77
2021/09/01 04:41:05;;;;;;;8.27;5.27;;;15.10;99.90;;;;;;5030995;28;20418;-79
2021/09/01 04:43:31;;;;;;;8.83;5.83;;;15.20;99.90;;;;;;5032190;28;20260;-78
2021/09/01 04:45:56;;;;;;;7.17;5.40;;;15.20;99.90;;;;;;5032358;28;20241;-77
2021/09/01 04:48:24;;;;;;;10.10;6.40;;;15.20;99.90;;;;;;5032312;28;20180;-78
2021/09/01 04:50:51;;;;;;;8.47;4.77;;;15.30;99.90;;;;;;5030641;28;20655;-78
2021/09/01 04:53:17;;;;;;;8.30;5.33;;;15.20;99.90;;;;;;5030664;28;20518;-77
2021/09/01 04:55:42;;;;;;;8.23;5.97;;;15.20;99.90;;;;;;5158773;22;21071;-77
2021/09/01 04:58:08;;;;;;;7.90;5.70;;;15.30;99.90;;;;;;5048552;28;20427;-79
2021/09/01 05:00:34;;;;;;;6.47;5.23;;;15.30;99.90;;;;;;5038069;28;20265;-78
2021/09/01 05:03:00;;;;;;;8.53;5.90;;;15.30;99.90;;;;;;5039185;28;20419;-78
2021/09/01 05:05:26;;;;;;;5.87;4.60;;;15.30;99.90;;;;;;5036767;28;20499;-77
2021/09/01 05:07:51;;;;;;;7.97;5.70;;;15.30;99.90;;;;;;5040710;28;20172;-77
2021/09/01 05:10:17;;;;;;;8.00;5.53;;;15.20;99.90;;;;;;5051878;28;20173;-78
2021/09/01 05:12:48;;;;;;;4.70;4.30;;;15.30;99.90;;;;;;5036205;28;20197;-78
2021/09/01 05:15:15;;;;;;;7.60;5.10;;;15.30;99.90;;;;;;5030688;28;20264;-79
2021/09/01 05:17:43;;;;;;;10.53;6.27;;;15.30;99.90;;;;;;5032058;28;20429;-79
2021/09/01 05:20:10;;;;;;;7.10;4.80;;;15.40;99.90;;;;;;5030492;28;20423;-78
2021/09/01 05:22:37;;;;;;;7.27;4.83;;;15.40;99.90;;;;;;5030604;28;20433;-80
2021/09/01 05:25:11;;;;;;;10.23;5.70;;;15.50;99.90;;;;;;5052228;28;20470;-78
2021/09/01 05:27:40;;;;;;;6.30;4.90;;;15.50;99.90;;;;;;5030991;28;20423;-79
2021/09/01 05:30:09;;;;;;;7.00;4.10;;;15.50;99.90;;;;;;5032015;28;20514;-78
2021/09/01 05:32:38;;;;;;;7.10;5.20;;;15.50;99.90;;;;;;5030302;28;20463;-76
2021/09/01 05:35:06;;;;;;;7.97;5.80;;;15.60;99.90;;;;;;5036904;28;20451;-79
2021/09/01 05:37:33;;;;;;;8.90;6.53;;;15.70;99.90;;;;;;5039528;28;20462;-77
2021/09/01 05:40:00;;;;;;;16.20;6.73;;;15.70;99.90;;;;;;5033431;28;20970;-79
2021/09/01 05:42:29;;;;;;;9.23;5.33;;;15.80;99.90;;;;;;5033985;28;20823;-78
2021/09/01 05:44:56;;;;;;;12.13;5.90;;;15.70;99.90;;;;;;5033404;28;20850;-78
2021/09/01 05:47:24;;;;;;;6.97;5.00;;;15.80;99.90;;;;;;5035071;28;20455;-77
2021/09/01 05:49:51;;;;;;;8.37;5.40;;;15.80;99.90;;;;;;5036809;28;20412;-80
2021/09/01 05:52:18;;;;;;;7.27;5.40;;;16.10;99.90;;;;;;5037801;28;20614;-80
2021/09/01 05:54:50;;;;;;;9.23;5.83;;;16.30;99.90;;;;;;5039427;28;20966;-81
2021/09/01 05:57:22;;;;;;;5.93;4.57;;;16.30;99.90;;;;;;5042127;28;20413;-82
2021/09/01 05:59:53;;;;;;;8.63;5.50;;;16.50;99.90;;;;;;5015716;28;20424;-81
2021/09/01 06:02:22;;;;;;;8.27;5.33;;;16.90;99.90;;;;;;5037227;28;20411;-81
2021/09/01 06:04:48;;;;;;;7.10;5.17;;;16.70;99.90;;;;;;5049578;28;20483;-81
2021/09/01 06:07:16;;;;;;;6.47;5.00;;;16.70;99.90;;;;;;5020279;28;20810;-81
2021/09/01 06:09:43;;;;;;;6.70;4.93;;;16.80;99.90;;;;;;5036629;28;20424;-81
2021/09/01 06:12:13;;;;;;;5.93;4.60;;;17.00;99.90;;;;;;5036955;28;20593;-80
2021/09/01 06:14:38;;;;;;;7.63;5.17;;;17.30;99.90;;;;;;5035401;28;20531;-79
2021/09/01 06:17:04;;;;;;;8.30;5.03;;;17.50;99.90;;;;;;5036419;28;20413;-81
2021/09/01 06:19:29;;;;;;;6.37;5.23;;;17.60;99.90;;;;;;5002568;28;20602;-78
2021/09/01 06:21:55;;;;;;;9.97;5.03;;;18.00;99.90;;;;;;5017485;28;20185;-79
2021/09/01 06:24:20;;;;;;;7.77;4.67;;;18.20;99.90;;;;;;5029517;28;20228;-81
2021/09/01 06:26:46;;;;;;;6.57;5.30;;;18.00;99.90;;;;;;5037135;28;20188;-81
2021/09/01 06:29:11;;;;;;;8.10;5.00;;;18.20;99.90;;;;;;5018420;28;20192;-80
2021/09/01 06:31:39;;;;;;;8.93;5.20;;;18.30;99.90;;;;;;5035012;28;20265;-79
2021/09/01 06:34:05;;;;;;;7.47;5.43;;;18.50;99.90;;;;;;5034577;28;20185;-79
2021/09/01 06:36:31;;;;;;;7.10;5.03;;;18.60;99.90;;;;;;5037329;28;20421;-80
2021/09/01 06:38:56;;;;;;;4.60;4.07;;;18.70;99.90;;;;;;5049453;28;20445;-81
2021/09/01 06:41:22;;;;;;;7.93;5.40;;;18.60;99.90;;;;;;5048921;28;20652;-79
2021/09/01 06:43:47;;;;;;;8.37;5.13;;;18.50;99.90;;;;;;5040175;28;20170;-80
2021/09/01 06:46:13;;;;;;;6.87;4.60;;;18.60;99.90;;;;;;5049554;28;20219;-81
2021/09/01 06:48:38;;;;;;;7.00;4.70;;;18.60;99.90;;;;;;5032205;28;20674;-81
2021/09/01 06:51:04;;;;;;;6.03;4.43;;;18.50;99.90;;;;;;5032823;28;20884;-79
2021/09/01 06:53:29;;;;;;;8.50;5.17;;;18.60;99.90;;;;;;5033229;28;20710;-79
2021/09/01 06:55:55;;;;;;;8.97;5.47;;;18.40;99.90;;;;;;5015875;28;20630;-80
2021/09/01 06:58:20;;;;;;;7.87;5.00;;;18.50;99.90;;;;;;5033449;28;20185;-80
2021/09/01 07:00:46;;;;;;;7.10;5.17;;;18.30;99.90;;;;;;5016872;28;20216;-79
2021/09/01 07:03:12;;;;;;;8.40;5.80;;;18.40;99.90;;;;;;5033320;28;20173;-80
2021/09/01 07:05:38;;;;;;;10.07;5.67;;;18.40;99.90;;;;;;5034362;28;20219;-79
2021/09/01 07:08:11;;;;;;;10.57;5.50;;;18.50;99.90;;;;;;5034587;28;20427;-79
2021/09/01 07:10:37;;;;;;;6.67;5.00;;;18.70;99.90;;;;;;5053869;28;20400;-79
2021/09/01 07:13:02;;;;;;;6.60;4.37;;;18.70;99.90;;;;;;5034065;28;20439;-79
2021/09/01 07:15:28;;;;;;;10.97;4.87;;;18.70;99.90;;;;;;5032321;28;20476;-79
2021/09/01 07:17:54;;;;;;;8.60;5.50;;;18.50;99.90;;;;;;5032885;28;20639;-79
2021/09/01 07:20:21;;;;;;;6.60;4.60;;;18.50;99.90;;;;;;5052097;28;20187;-79
2021/09/01 07:22:47;;;;;;;8.30;5.10;;;18.70;99.90;;;;;;5053610;28;20203;-78
2021/09/01 07:25:12;;;;;;;6.87;4.83;;;18.80;99.90;;;;;;5040641;28;20441;-79
2021/09/01 07:27:38;;;;;;;6.33;4.60;;;18.50;99.90;;;;;;5032150;28;20927;-79
2021/09/01 07:30:05;;;;;;;8.23;4.60;;;18.40;99.90;;;;;;5032690;28;20178;-79
2021/09/01 07:32:31;;;;;;;10.73;4.90;;;18.30;99.90;;;;;;5031986;28;20297;-79
2021/09/01 07:34:57;;;;;;;6.87;4.87;;;18.50;99.90;;;;;;5031046;28;20475;-79
2021/09/01 07:37:22;;;;;;;6.93;4.67;;;18.40;99.90;;;;;;5032113;28;20179;-79
2021/09/01 07:39:48;;;;;;;8.00;5.47;;;18.40;99.90;;;;;;5032863;28;20188;-79
2021/09/01 07:42:14;;;;;;;10.63;5.70;;;18.60;99.90;;;;;;5033760;28;20557;-81
2021/09/01 07:44:39;;;;;;;8.33;5.60;;;18.70;99.90;;;;;;5015122;28;20551;-78
2021/09/01 07:47:05;;;;;;;6.27;4.67;;;18.80;99.90;;;;;;5033750;28;20649;-79
2021/09/01 07:49:30;;;;;;;6.87;5.00;;;19.00;99.90;;;;;;5031622;28;20747;-79
2021/09/01 07:51:56;;;;;;;7.00;4.50;;;18.90;99.90;;;;;;5031441;28;20676;-78
2021/09/01 07:54:22;;;;;;;8.57;4.63;;;19.00;99.90;;;;;;5031925;28;20899;-79
2021/09/01 07:56:48;;;;;;;8.00;5.07;;;19.10;99.90;;;;;;5031807;28;20814;-79
2021/09/01 07:59:13;;;;;;;8.60;5.43;;;19.30;99.90;;;;;;5033135;28;20611;-79
2021/09/01 08:01:39;;;;;;;5.47;4.20;;;19.40;99.90;;;;;;5031517;28;20587;-79
2021/09/01 08:04:05;;;;;;;5.87;4.43;;;19.40;99.90;;;;;;5032584;28;20222;-80
2021/09/01 08:06:30;;;;;;;9.83;5.40;;;19.00;99.90;;;;;;5031276;28;20182;-79
2021/09/01 08:08:56;;;;;;;14.40;5.60;;;19.10;99.90;;;;;;5033467;28;21050;-79
2021/09/01 08:11:21;;;;;;;9.17;4.13;;;19.10;99.90;;;;;;5033485;28;20646;-80
2021/09/01 08:13:47;;;;;;;6.90;5.53;;;19.00;99.90;;;;;;5032752;28;20549;-79
2021/09/01 08:16:13;;;;;;;8.60;5.40;;;18.90;99.90;;;;;;5032990;28;20168;-80
2021/09/01 08:18:38;;;;;;;7.00;5.67;;;18.90;99.90;;;;;;5032511;28;20272;-79
2021/09/01 08:21:03;;;;;;;5.67;5.07;;;18.70;99.90;;;;;;5032476;28;20196;-79
2021/09/01 08:23:29;;;;;;;9.50;6.00;;;18.80;99.90;;;;;;5031687;28;20663;-79
2021/09/01 08:25:55;;;;;;;8.80;5.50;;;18.60;99.90;;;;;;5045792;28;20742;-79
2021/09/01 08:28:20;;;;;;;8.10;5.20;;;18.30;99.90;;;;;;5038228;28;20177;-80
2021/09/01 08:30:46;;;;;;;7.87;5.23;;;18.10;99.90;;;;;;5048758;28;20644;-80
2021/09/01 08:33:17;;;;;;;6.80;5.20;;;18.20;99.90;;;;;;5045226;28;20182;-79
2021/09/01 08:35:42;;;;;;;7.13;4.97;;;18.40;99.90;;;;;;5032424;28;20197;-78
2021/09/01 08:38:11;;;;;;;6.73;5.47;;;18.20;99.90;;;;;;5032008;28;20427;-79
2021/09/01 08:40:36;;;;;;;9.63;5.53;;;18.50;99.90;;;;;;5032499;28;20565;-77
2021/09/01 08:43:02;;;;;;;10.07;5.77;;;18.20;99.90;;;;;;5036471;28;20420;-78
2021/09/01 08:45:28;;;;;;;8.43;5.17;;;18.30;99.90;;;;;;5032221;28;20228;-79
2021/09/01 08:47:55;;;;;;;7.63;5.47;;;18.40;99.90;;;;;;5032463;28;20184;-79
2021/09/01 08:50:21;;;;;;;7.67;5.90;;;18.40;99.90;;;;;;5032940;28;20197;-79
2021/09/01 08:52:47;;;;;;;10.00;6.87;;;18.20;99.90;;;;;;5033294;28;20492;-79
2021/09/01 08:55:14;;;;;;;8.70;6.20;;;18.20;99.90;;;;;;5032932;28;20636;-79
2021/09/01 08:57:40;;;;;;;10.07;6.53;;;18.00;99.90;;;;;;5032571;28;20256;-79
2021/09/01 09:00:08;;;;;;;13.40;7.30;;;18.00;99.90;;;;;;5032988;28;20435;-80
2021/09/01 09:02:34;;;;;;;7.87;6.13;;;18.10;99.90;;;;;;5032123;28;20422;-80
2021/09/01 09:05:05;;;;;;;6.97;5.87;;;18.10;99.90;;;;;;5033174;28;20521;-79
2021/09/01 09:07:41;;;;;;;6.87;6.03;;;18.10;99.90;;;;;;5039874;28;20185;-79
2021/09/01 09:10:24;;;;;;;9.37;6.77;;;18.10;99.90;;;;;;5043376;28;20454;-79
2021/09/01 09:12:56;;;;;;;10.63;7.57;;;18.00;99.90;;;;;;5032648;28;21072;-79
2021/09/01 09:15:22;;;;;;;16.20;7.03;;;18.10;99.90;;;;;;5036554;28;20451;-79
2021/09/01 09:17:48;;;;;;;10.10;6.33;;;18.10;99.90;;;;;;5036589;28;20400;-78
2021/09/01 09:20:13;;;;;;;12.03;6.07;;;18.10;99.90;;;;;;5036292;28;20193;-78
2021/09/01 09:22:42;;;;;;;11.40;6.20;;;18.10;99.90;;;;;;5034071;28;20186;-78
2021/09/01 09:25:24;;;;;;;9.30;7.07;;;18.00;99.90;;;;;;5035714;28;20209;-78
2021/09/01 09:27:57;;;;;;;9.10;6.40;;;18.10;99.90;;;;;;5035721;28;20430;-79
2021/09/01 09:30:44;;;;;;;11.50;6.40;;;18.00;99.90;;;;;;5034727;28;20442;-79
2021/09/01 09:33:14;;;;;;;13.20;6.93;;;18.00;99.90;;;;;;5049749;28;20475;-79
2021/09/01 09:35:50;;;;;;;11.73;7.37;;;18.00;99.90;;;;;;5056269;28;20433;-78
2021/09/01 09:38:29;;;;;;;11.30;7.43;;;18.00;99.90;;;;;;5034623;28;20463;-79
2021/09/01 09:40:55;;;;;;;7.00;5.90;;;18.00;99.90;;;;;;5035991;28;20831;-79
2021/09/01 09:43:22;;;;;;;8.60;6.23;;;18.10;99.90;;;;;;5035322;28;20431;-80
2021/09/01 09:45:57;;;;;;;10.93;7.40;;;18.00;99.90;;;;;;5036237;28;20946;-78
2021/09/01 09:48:31;;;;;;;8.00;6.50;;;18.00;99.90;;;;;;5034655;28;20996;-78
2021/09/01 09:50:57;;;;;;;10.93;6.50;;;18.20;99.90;;;;;;5035292;28;20423;-78
2021/09/01 09:53:40;;;;;;;9.70;7.00;;;18.30;99.90;;;;;;5037621;28;20416;-78
2021/09/01 09:56:12;;;;;;;13.97;7.93;;;18.20;99.90;;;;;;5040511;28;20448;-77
2021/09/01 09:58:59;;;;;;;11.00;7.83;;;18.40;99.90;;;;;;5049526;28;20963;-79
2021/09/01 10:01:26;;;;;;;9.27;7.03;;;18.40;99.90;;;;;;5040227;28;20438;-79
2021/09/01 10:03:52;;;;;;;11.73;8.00;;;18.40;99.90;;;;;;5058696;28;20832;-80
2021/09/01 10:06:19;;;;;;;12.43;8.33;;;18.20;99.90;;;;;;5058301;28;20411;-78
2021/09/01 10:08:47;;;;;;;11.97;7.80;;;18.40;99.90;;;;;;5055122;28;20411;-78
2021/09/01 10:11:15;;;;;;;13.23;7.93;;;18.40;99.90;;;;;;5054961;28;20455;-78
2021/09/01 10:13:47;;;;;;;9.60;7.00;;;18.10;99.90;;;;;;5053032;28;20464;-79
2021/09/01 10:16:24;;;;;;;12.07;6.77;;;18.10;99.90;;;;;;5054786;28;20407;-78
2021/09/01 10:19:19;;;;;;;9.33;6.67;;;18.30;99.90;;;;;;5041079;28;20412;-78
2021/09/01 10:21:51;;;;;;;11.00;7.80;;;18.40;99.90;;;;;;5034994;28;20511;-79
2021/09/01 10:24:20;;;;;;;10.90;7.00;;;18.30;99.90;;;;;;5034109;28;20448;-77
2021/09/01 10:27:02;;;;;;;9.57;7.20;;;18.20;99.90;;;;;;5034314;28;20456;-78
2021/09/01 10:29:46;;;;;;;8.90;6.57;;;18.20;99.90;;;;;;5040389;28;20399;-79
2021/09/01 10:32:17;;;;;;;9.67;7.40;;;18.30;99.90;;;;;;5055038;28;20451;-78
2021/09/01 10:34:43;;;;;;;10.63;6.83;;;18.30;99.90;;;;;;5055056;28;20454;-78
2021/09/01 10:37:08;;;;;;;17.93;7.57;;;18.30;99.90;;;;;;5055585;28;20805;-79
2021/09/01 10:39:35;;;;;;;8.43;5.90;;;18.30;99.90;;;;;;5055375;28;20243;-78
2021/09/01 10:42:34;;;;;;;10.97;7.17;;;18.30;99.90;;;;;;5047950;28;20174;-78
2021/09/01 10:45:00;;;;;;;14.07;6.83;;;18.40;99.90;;;;;;5035273;28;20428;-78
2021/09/01 10:47:25;;;;;;;10.60;6.40;;;18.50;99.90;;;;;;5036359;28;21107;-77
2021/09/01 10:49:54;;;;;;;15.33;7.13;;;18.60;99.90;;;;;;5035806;28;20434;-78
2021/09/01 10:52:19;;;;;;;10.93;6.23;;;18.50;99.90;;;;;;5036795;28;20208;-78
2021/09/01 10:54:46;;;;;;;9.87;6.30;;;18.50;99.90;;;;;;5035711;28;20447;-79
2021/09/01 10:57:27;;;;;;;9.97;6.10;;;18.50;99.90;;;;;;5035323;28;20169;-79
2021/09/01 10:59:57;;;;;;;8.47;6.30;;;18.50;99.90;;;;;;5037453;28;20486;-79
2021/09/01 11:02:23;;;;;;;8.70;6.03;;;18.30;99.90;;;;;;5036333;28;20569;-80
2021/09/01 11:04:54;;;;;;;10.10;5.80;;;18.20;99.90;;;;;;5034294;28;20635;-81
2021/09/01 11:07:33;;;;;;;6.70;5.50;;;18.40;99.90;;;;;;5033599;28;20676;-78
2021/09/01 11:10:04;;;;;;;7.70;5.83;;;18.40;99.90;;;;;;5039979;28;20518;-79
2021/09/01 11:12:33;;;;;;;8.27;6.40;;;18.50;99.90;;;;;;5033424;28;20571;-79
2021/09/01 11:14:59;;;;;;;7.43;5.93;;;18.40;99.90;;;;;;5034797;28;20837;-79
2021/09/01 11:17:29;;;;;;;9.97;5.80;;;18.50;99.90;;;;;;5034384;28;20416;-80
2021/09/01 11:19:58;;;;;;;9.30;6.63;;;18.60;99.90;;;;;;5034248;28;20177;-80
2021/09/01 11:22:29;;;;;;;9.93;6.47;;;18.70;99.90;;;;;;5033070;28;20444;-79
2021/09/01 11:25:04;;;;;;;8.53;5.70;;;18.80;99.90;;;;;;5032304;28;20451;-79
2021/09/01 11:27:31;;;;;;;9.60;6.17;;;18.80;99.90;;;;;;5034643;28;20465;-79
2021/09/01 11:30:03;;;;;;;10.43;5.93;;;18.60;99.90;;;;;;5033488;28;20864;-80
2021/09/01 11:32:29;;;;;;;11.10;7.40;;;18.60;99.90;;;;;;5034663;28;20507;-80
2021/09/01 11:34:54;;;;;;;6.20;4.50;;;18.60;99.90;;;;;;5034702;28;20432;-79
2021/09/01 11:37:20;;;;;;;9.70;6.60;;;18.60;99.90;;;;;;5034550;28;20177;-80
2021/09/01 11:39:48;;;;;;;9.57;6.70;;;18.70;99.90;;;;;;5017816;28;20269;-80
2021/09/01 11:42:15;;;;;;;10.63;6.60;;;18.90;99.90;;;;;;5035064;28;20452;-80
2021/09/01 11:44:41;;;;;;;8.90;6.50;;;19.00;99.90;;;;;;5036730;28;20915;-80
2021/09/01 11:47:14;;;;;;;7.90;5.67;;;19.10;99.90;;;;;;5035000;28;20424;-80
2021/09/01 11:49:40;;;;;;;8.23;5.83;;;18.90;99.90;;;;;;5040799;28;20429;-79
2021/09/01 11:52:05;;;;;;;8.40;5.70;;;19.00;99.90;;;;;;5040860;28;20454;-80
2021/09/01 11:54:31;;;;;;;9.97;6.47;;;19.10;99.90;;;;;;5037191;28;20561;-81
2021/09/01 11:56:57;;;;;;;9.97;6.53;;;19.10;99.90;;;;;;5031304;28;20220;-81
2021/09/01 11:59:25;;;;;;;11.10;6.73;;;19.30;99.90;;;;;;5033842;28;20194;-81
2021/09/01 12:01:58;;;;;;;8.60;6.37;;;19.40;99.90;;;;;;5032909;28;20257;-79
2021/09/01 12:04:24;;;;;;;10.13;5.90;;;19.40;99.90;;;;;;5034055;28;20482;-81
2021/09/01 12:06:56;;;;;;;9.17;5.77;;;19.50;99.90;;;;;;5038131;28;20423;-81
2021/09/01 12:09:26;;;;;;;8.20;6.40;;;19.40;99.90;;;;;;5034418;28;20474;-81
2021/09/01 12:12:00;;;;;;;6.70;5.13;;;19.40;99.90;;;;;;5034697;28;20449;-79
2021/09/01 12:14:28;;;;;;;7.20;5.63;;;19.40;99.90;;;;;;5060479;28;20445;-80
2021/09/01 12:17:13;;;;;;;9.53;5.90;;;19.50;99.90;;;;;;5034797;28;20425;-79
2021/09/01 12:19:51;;;;;;;8.83;6.20;;;19.60;99.90;;;;;;5032363;28;20803;-79
2021/09/01 12:22:37;;;;;;;8.40;6.37;;;19.40;99.90;;;;;;5034266;28;20523;-80
2021/09/01 12:25:13;;;;;;;6.90;5.60;;;19.40;99.90;;;;;;5033235;28;20545;-80
2021/09/01 12:27:55;;;;;;;9.17;6.37;;;19.40;99.90;;;;;;5034781;28;20481;-81
2021/09/01 12:30:28;;;;;;;7.73;5.30;;;19.40;99.90;;;;;;5032590;28;20444;-80
2021/09/01 12:33:02;;;;;;;9.67;6.07;;;19.50;99.90;;;;;;5033178;28;20464;-80
2021/09/01 12:35:31;;;;;;;8.27;5.50;;;19.00;99.90;;;;;;5033114;28;20448;-79
2021/09/01 12:37:57;;;;;;;7.30;5.73;;;19.00;99.90;;;;;;5033347;28;20430;-80
2021/09/01 12:40:32;;;;;;;5.87;4.60;;;19.10;99.90;;;;;;5033608;28;20432;-79
2021/09/01 12:43:06;;;;;;;13.13;6.10;;;19.40;99.90;;;;;;5048243;28;20441;-80
2021/09/01 12:45:33;;;;;;;5.30;4.57;;;19.60;99.90;;;;;;5033214;28;20515;-79
2021/09/01 12:48:03;;;;;;;7.67;5.47;;;19.70;99.90;;;;;;5034726;28;20413;-80
2021/09/01 12:50:36;;;;;;;9.30;6.17;;;19.70;99.90;;;;;;5038073;28;20520;-80
2021/09/01 12:53:03;;;;;;;9.27;5.37;;;19.70;99.90;;;;;;5034525;28;20467;-80